Nicholas Christofi

Chefscout - Omonoia
4 Apr 2028
Dienstag
Verarbeitung

Persönlichkeit

Anpassungsfähigkeit (13) Ehrgeiz (5) Kontroverse (3) Loyalität (20) Druck (1) Professionalität (7) Fairness (3) Temperament (12)

Profil

Trainerstil Demokratisch
Lizenz Nationale B
Entschlossenheit 8
Menschenführung 6
Motivation 12
Disziplin 11
Arbeitszufriedenheit
100%
Ermüdung
0%
Rolle Chefscout
Gehalt 41.5K p/W
Vertrag 14.03.2029

Leistung

Verhalten Gut
Trainingseffektivität
45%
Spielerentwicklung
35%
Verletzungsprävention
45%
Taktische Umsetzung
55%

Aktuell beobachtet

85
Spieler Verein Status Fähigkeit Vertrauen Beobachtet Zuletzt beobachtet Letzte Stimme
Hrvoje Miličević AE Kition Aktiv 121 / 119 51% 1 31.01.2028 -
Mattia Puzone Siracusa Aktiv 104 / 104 40% 2 30.01.2028 -
Somto Boniface Ipswich Town Aktiv 110 / 114 40% 1 30.01.2028 -
Matvey Bardachev Zenit Aktiv 111 / 120 40% 2 29.01.2028 -
Yousef Al-Tahan Al-Nassr Aktiv 73 / 92 40% 2 29.01.2028 -
Yaya Onogo Fatih Karagumruk Aktiv 96 / 102 40% 1 27.01.2028 -
Dylan Gorosito Boca Juniors Aktiv 125 / 119 40% 2 24.01.2028 -
Harbor Miller LA Galaxy Aktiv 116 / 115 40% 1 24.01.2028 -
Martim Cunha Porto Aktiv 113 / 107 40% 2 22.01.2028 -
Thamsanqa Phiri Free State Stars Aktiv 93 / 93 40% 2 21.01.2028 -
Andrej Pavlović OFK Beograd Aktiv 113 / 104 40% 2 21.01.2028 -
Victor Martinez Atletico Venezuela Aktiv 98 / 99 40% 1 20.01.2028 -
Yusuf Akçiçek Al-Hilal Aktiv 136 / 146 40% 1 17.01.2028 -
Johan Solstad-Nøis Haugesund Aktiv 102 / 103 40% 1 15.01.2028 -
Amine Boukamir Charleroi Aktiv 102 / 98 40% 1 14.01.2028 -
Celías Ingenthron Racing Club Aktiv 103 / 128 40% 3 11.01.2028 -
Facundo Balatti Penarol Aktiv 112 / 112 40% 5 10.01.2028 -
Aytor Herrera Atletico Venezuela Aktiv 97 / 90 40% 1 10.01.2028 -
Matvey Kuznetsov Spartak Moscow Aktiv 84 / 88 40% 1 09.01.2028 -
Tiago Gordillo San Miguel Aktiv 81 / 95 40% 1 08.01.2028 -
Jakub Adkonis Korona Aktiv 108 / 107 40% 1 07.01.2028 -
Juan Morán Godoy Cruz Aktiv 106 / 116 40% 1 05.01.2028 -
Drew Baiera New York City Aktiv 109 / 99 40% 2 04.01.2028 -
Jon Esenga IF Elfsborg Aktiv 82 / 93 40% 1 04.01.2028 -
Yoram Zague Paris Saint-Germain Aktiv 141 / 118 40% 3 03.01.2028 -
Dilan Villarreal Junior Aktiv 91 / 100 40% 2 03.01.2028 -
Matías Canedo Rampla Juniors Aktiv 88 / 87 40% 2 31.08.2027 -
Nikolay Sotnikov Arsenal Dzerzhinsk Aktiv 81 / 87 40% 2 31.08.2027 -
Ivan Borges Defensores Aktiv 77 / 85 40% 1 30.08.2027 -
Enzo Cardozo Huracán Aktiv 97 / 122 40% 2 22.08.2027 -
Uzoigwe Odinaka Gazelle Aktiv 64 / 81 40% 1 21.08.2027 -
Fabián Correa Barranquilla Aktiv 87 / 96 40% 1 21.08.2027 -
Juan Diego Perdomo Depor Aktiv 99 / 83 40% 2 20.08.2027 -
Teo Rodríguez Pagano San Lorenzo Aktiv 129 / 131 40% 3 17.08.2027 -
Santiago Espíndola River Plate Aktiv 93 / 123 40% 1 17.08.2027 -
Abdoul Djire Ararat Aktiv 96 / 107 40% 4 13.08.2027 -
Zahir Ibarra Unión de Santa Fe Aktiv 95 / 110 40% 1 13.08.2027 -
Lucio Cruceño Godoy Cruz Aktiv 100 / 101 40% 1 12.08.2027 -
Simone Kosijer Triestina Aktiv 103 / 114 40% 4 11.08.2027 -
Ulises Giménez River Plate Aktiv 111 / 108 40% 1 10.08.2027 -
Mauro Carrizo Atlético Tucumán Aktiv 103 / 110 40% 1 10.08.2027 -
Seth Ridgeon Fulham Aktiv 118 / 105 40% 1 09.08.2027 -
Alexandr Voronovich Niva Aktiv 56 / 76 40% 1 08.08.2027 -
Enzo Galli Patronato Aktiv 88 / 100 40% 1 06.08.2027 -
José Movillo O'Higgins Aktiv 94 / 85 40% 1 04.08.2027 -
Ibrahim Sabiu Bendel Insurance Aktiv 77 / 97 40% 1 31.07.2027 -
Alfie Cresswell Derby County Aktiv 110 / 114 40% 2 27.07.2027 -
Kian Best Eibar Aktiv 123 / 118 40% 3 21.07.2027 -
Elie N'Gatta Sochaux Aktiv 89 / 98 40% 3 19.07.2027 -
Dimos Papakonstantinou Luki-Energiya Aktiv 90 / 88 40% 1 15.07.2027 -
Pedro Manoel Tammeka Aktiv 104 / 102 40% 1 09.07.2027 -
Jonathan Pérez Guadalajara Aktiv 124 / 121 40% 2 26.06.2027 -
Yury Petin Chaika Aktiv 85 / 92 40% 1 24.06.2027 -
Mats Egbring Heerenveen Aktiv 108 / 118 40% 1 18.06.2027 -
Victor Corona Santos Laguna Aktiv 110 / 98 40% 2 15.06.2027 -
Nicolae Milinceanu Doxa Aktiv 105 / 92 48% 1 14.06.2027 -
Lucas Mbamba Westerlo Aktiv 70 / 99 40% 1 10.06.2027 -
Alexandr Burkov Spartak Nalchik Aktiv 75 / 78 40% 1 09.06.2027 -
Leonardo Mendicino Bari Aktiv 108 / 134 40% 1 08.06.2027 -
Marius Louër Angers SCO Aktiv 122 / 114 40% 1 07.06.2027 -
Christos Giousis Nea Salamis Aktiv 110 / 96 40% 2 29.01.2027 -
Roger Martínez Al-Shabab Aktiv 142 / 120 40% 1 29.01.2027 -
François Kamano Sochi Aktiv 133 / 131 40% 1 27.01.2027 -
Migran Ageyan Ufa Aktiv 87 / 108 40% 1 27.01.2027 -
Kamran Aliev SKA Khabarovsk Aktiv 106 / 99 40% 2 25.01.2027 -
Nicolás Andereggen Ethnikos Achnas Aktiv 124 / 119 40% 2 18.01.2027 -
Pedro Marques Apollon Aktiv 100 / 107 40% 2 13.01.2027 -
Dmitry Tsypchenko Torpedo Moscow Aktiv 95 / 96 40% 1 12.01.2027 -
Alexandr Yushin Torpedo Moscow Aktiv 112 / 115 40% 1 08.01.2027 -
Razhab Magomedov Dinamo Makhachkala Aktiv 118 / 95 40% 1 07.01.2027 -
Juan Peñaloza Lokomotiv Moscow Aktiv 115 / 112 40% 1 07.01.2027 -
Daniil Agureev Amkar Aktiv 78 / 80 40% 1 06.01.2027 -
Rufat Garayev Ravan Aktiv 113 / 109 40% 1 05.01.2027 -
Musa Qurbanlı Qarabag Aktiv 95 / 103 40% 2 29.08.2026 -
Jordan Roberts Everton Aktiv 129 / 125 40% 2 29.08.2026 -
Justin-Noël Kalumba Mallorca Aktiv 91 / 116 40% 1 28.08.2026 -
Agustín Bianciotti Metropolitanos Aktiv 99 / 92 40% 1 26.08.2026 -
Diego Valencia Universidad Catolica Aktiv 119 / 118 40% 1 26.08.2026 -
Albin Andersson Falkenberg Aktiv 103 / 119 40% 2 24.08.2026 -
Enzo Cabrera AE Kition Aktiv 106 / 101 40% 1 21.08.2026 -
Adam Taggart Qarabag Aktiv 118 / 126 40% 1 19.08.2026 -
Nicolás Contín Saburtalo Aktiv 117 / 105 40% 1 18.08.2026 -
Dani Escriche Apollon Aktiv 126 / 110 40% 1 11.08.2026 -
Valentin Costache Noah Aktiv 115 / 117 40% 1 10.08.2026 -
Alejandro Samudio Nacional Aktiv 97 / 102 40% 1 01.08.2026 -